Flight Track Log - Related Links

Times and Time Zones

All times are in EDT time to prevent confusion due to time zone crossing. See the UAL619 flight status page for this flight to view local times or setup timezone preferences in your user account.


Time Position Orientation Groundspeed Altitude Reporting Facility
EDT Latitude Longitude Course Direction KTS MPH feet Rate Location/Type
Sun 05:06:16 PM 28.4167 -81.3167 270° West 177 204 500  Level Orlando TRACON
Sun 05:07:10 PM 28.3833 -81.3500 221° Southwest 221 254 2,500 2,587 Climbing Orlando TRACON
Sun 05:08:05 PM 28.3667 -81.4000 249° West 259 298 5,200 3,078 Climbing Orlando TRACON
Sun 05:09:00 PM 28.4167 -81.6765 270° West  Level FlightAware Approximate
Sun 05:09:05 PM 28.3667 -81.4833 270° West 249 287 8,400  Level Orlando TRACON
Sun 05:10:00 PM 28.4167 -81.8020 270° West  Level FlightAware Approximate
Sun 05:10:05 PM 28.3833 -81.5667 283° West 296 341 11,000  Level Orlando TRACON
Sun 05:11:00 PM 28.4167 -81.9275 270° West  Level FlightAware Approximate
Sun 05:12:28 PM 28.4189 -81.8233 279° West 363 418 16,000  Level Jacksonville Center
Sun 05:13:28 PM 28.4386 -81.9436 281° West 384 442 17,900 2,300 Climbing Jacksonville Center
Sun 05:14:28 PM 28.4583 -82.0661 280° West 391 450 20,600 2,350 Climbing Jacksonville Center
Sun 05:15:28 PM 28.4778 -82.1864 280° West 391 450 22,600 1,800 Climbing Jacksonville Center
Sun 05:16:28 PM 28.4950 -82.3161 279° West 401 461 24,200 1,750 Climbing Jacksonville Center
Sun 05:17:28 PM 28.5603 -82.4222 305° West 401 461 26,100 1,600 Climbing Jacksonville Center
Sun 05:18:28 PM 28.6689 -82.4928 330° Northwest 401 461 27,400 1,450 Climbing Jacksonville Center
Sun 05:19:28 PM 28.7944 -82.5656 333° Northwest 432 497 29,000 1,900 Climbing Jacksonville Center
Sun 05:20:28 PM 28.9050 -82.6317 332° Northwest 441 507 31,200 1,850 Climbing Jacksonville Center
Sun 05:21:28 PM 29.0158 -82.6978 332° Northwest 446 513 32,700 1,350 Climbing Jacksonville Center
Sun 05:22:28 PM 29.1267 -82.7642 332° Northwest 441 507 33,900 600 Climbing Jacksonville Center
Sun 05:23:28 PM 29.2331 -82.8283 332° Northwest 441 507 33,900  Level Jacksonville Center
Sun 05:24:28 PM 29.3394 -82.8925 332° Northwest 436 502 33,900 50 Level Jacksonville Center
Sun 05:25:28 PM 29.4461 -82.9569 332° Northwest 436 502 34,000 50 Climbing Jacksonville Center
Sun 05:26:28 PM 29.5442 -83.0192 331° Northwest 447 514 34,000 300 Level Jacksonville Center
Sun 05:27:28 PM 29.6567 -83.0789 335° Northwest 442 509 34,600 600 Climbing Jacksonville Center
Sun 05:28:28 PM 29.7694 -83.1319 338° Northwest 432 497 35,200 550 Climbing Jacksonville Center
Sun 05:29:28 PM 29.8800 -83.1800 339° North 432 497 35,700 350 Climbing Jacksonville Center
Sun 05:30:28 PM 29.9925 -83.2331 338° Northwest 432 497 35,900 150 Climbing Jacksonville Center
Sun 05:31:28 PM 30.1072 -83.2864 338° Northwest 437 503 36,000 50 Climbing Jacksonville Center
Sun 05:32:28 PM 30.2197 -83.3372 339° North 432 497 36,000 -50 Level Jacksonville Center
Sun 05:33:28 PM 30.3344 -83.3908 338° Northwest 432 497 35,900  Descending Jacksonville Center
Sun 05:34:28 PM 30.4469 -83.4444 338° Northwest 432 497 36,000 50 Climbing Jacksonville Center
Sun 05:35:28 PM 30.5617 -83.4981 338° Northwest 432 497 36,000  Level Jacksonville Center
Sun 05:36:28 PM 30.6761 -83.5519 338° Northwest 432 497 36,000  Level Jacksonville Center
Sun 05:37:28 PM 30.7886 -83.6036 338° Northwest 432 497 36,000  Level Jacksonville Center
Sun 05:38:28 PM 30.9031 -83.6600 337° Northwest 432 497 36,000  Level Jacksonville Center
Sun 05:40:06 PM 31.0889 -83.7528 337° Northwest 440 506 36,000  Level Atlanta Center
Sun 05:41:06 PM 31.2017 -83.8058 338° Northwest 440 506 36,000  Level Atlanta Center
Sun 05:42:06 PM 31.3144 -83.8614 337° Northwest 440 506 36,000  Level Atlanta Center
Sun 05:43:06 PM 31.4294 -83.9172 337° Northwest 440 506 36,000  Level Atlanta Center
Sun 05:44:06 PM 31.5461 -83.9658 340° North 440 506 36,000  Level Atlanta Center
Sun 05:45:06 PM 31.6819 -83.9975 349° North 440 506 36,000  Level Atlanta Center
Sun 05:46:06 PM 31.8050 -84.0242 350° North 445 512 36,000  Level Atlanta Center
Sun 05:47:06 PM 31.9283 -84.0486 350° North 450 518 36,000  Level Atlanta Center
Sun 05:48:06 PM 32.0533 -84.0756 350° North 450 518 36,000  Level Atlanta Center
Sun 05:49:06 PM 32.1767 -84.1050 349° North 450 518 36,000  Level Atlanta Center
Sun 05:50:06 PM 32.2997 -84.1322 349° North 450 518 36,000  Level Atlanta Center
Sun 05:51:06 PM 32.4250 -84.1594 350° North 450 518 36,000  Level Atlanta Center
Sun 05:52:06 PM 32.5458 -84.1892 348° North 450 518 36,000  Level Atlanta Center
Sun 05:53:06 PM 32.6711 -84.2164 350° North 450 518 36,000  Level Atlanta Center
Sun 05:54:06 PM 32.7900 -84.2464 348° North 450 518 36,000  Level Atlanta Center
Sun 05:55:06 PM 32.8986 -84.2714 349° North 445 512 36,000  Level Atlanta Center
Sun 05:56:06 PM 33.0194 -84.2989 349° North 445 512 36,000  Level Atlanta Center
Sun 05:57:06 PM 33.1386 -84.3267 349° North 440 506 36,000  Level Atlanta Center
Sun 05:58:06 PM 33.2553 -84.3544 349° North 432 497 36,000  Level Atlanta Center
Sun 05:59:06 PM 33.3847 -84.3822 350° North 432 497 36,000  Level Atlanta Center
Sun 06:00:06 PM 33.5056 -84.4100 349° North 432 497 36,000  Level Atlanta Center
Sun 06:01:06 PM 33.6183 -84.4356 349° North 427 491 36,000  Level Atlanta Center
Sun 06:02:06 PM 33.7414 -84.4661 348° North 434 499 36,000  Level Atlanta Center
Sun 06:03:06 PM 33.8644 -84.4942 349° North 434 499 36,000  Level Atlanta Center
Sun 06:04:06 PM 33.9603 -84.5172 349° North 434 499 36,000  Level Atlanta Center
Sun 06:05:06 PM 34.1064 -84.5531 349° North 439 505 36,000  Level Atlanta Center
Sun 06:06:06 PM 34.2147 -84.5789 349° North 446 513 36,000  Level Atlanta Center
Sun 06:07:06 PM 34.3356 -84.5997 352° North 441 507 36,000  Level Atlanta Center
Sun 06:08:06 PM 34.4692 -84.6108 356° North 436 502 36,000  Level Atlanta Center
Sun 06:09:06 PM 34.5903 -84.6217 356° North 436 502 36,000  Level Atlanta Center
Sun 06:10:06 PM 34.7092 -84.6275 358° North 436 502 36,000  Level Atlanta Center
Sun 06:11:06 PM 34.8322 -84.6361 357° North 436 502 36,000  Level Atlanta Center
Sun 06:12:06 PM 34.9553 -84.6444 357° North 436 502 36,000  Level Atlanta Center
Sun 06:13:06 PM 35.0761 -84.6531 357° North 441 507 36,000  Level Atlanta Center
Sun 06:14:06 PM 35.1972 -84.6589 358° North 441 507 36,000  Level Atlanta Center
Sun 06:15:06 PM 35.3183 -84.6650 358° North 441 507 36,000  Level Atlanta Center
Sun 06:16:06 PM 35.4411 -84.6786 355° North 441 507 36,000  Level Atlanta Center
Sun 06:17:06 PM 35.5600 -84.6897 356° North 441 507 36,000  Level Atlanta Center
Sun 06:18:06 PM 35.6769 -84.7033 355° North 436 502 36,000  Level Atlanta Center
Sun 06:19:06 PM 35.7978 -84.7147 356° North 436 502 36,000  Level Atlanta Center
Sun 06:21:22 PM 36.0514 -84.7406 355° North 431 496 36,000  Level Indianapolis Center
Sun 06:22:24 PM 36.1939 -84.7564 355° North 430 495 36,000  Level Indianapolis Center
Sun 06:23:26 PM 36.3139 -84.7700 355° North 433 498 36,000  Level Indianapolis Center
Sun 06:24:28 PM 36.4342 -84.7753 358° North 436 502 36,000  Level Indianapolis Center
Sun 06:25:30 PM 36.5592 -84.7422 12° North 455 524 36,000  Level Indianapolis Center
Sun 06:26:32 PM 36.6817 -84.6983 16° North 462 532 36,000  Level Indianapolis Center
Sun 06:27:34 PM 36.8014 -84.6342 23° Northeast 467 537 36,000  Level Indianapolis Center
Sun 06:28:36 PM 36.9464 -84.5603 22° Northeast 467 537 36,000  Level Indianapolis Center
Sun 06:29:38 PM 37.0708 -84.4981 22° Northeast 467 537 36,000  Level Indianapolis Center
Sun 06:30:40 PM 37.1925 -84.4364 22° Northeast 469 540 36,000  Level Indianapolis Center
Sun 06:31:42 PM 37.3122 -84.3725 23° Northeast 465 535 36,000  Level Indianapolis Center
Sun 06:32:44 PM 37.4339 -84.3119 22° Northeast 467 537 36,000  Level Indianapolis Center
Sun 06:33:46 PM 37.5569 -84.2978 North 444 511 36,000  Level Indianapolis Center
Sun 06:34:48 PM 37.6758 -84.3117 355° North 428 493 36,000  Level Indianapolis Center
Sun 06:35:50 PM 37.8119 -84.3256 355° North 417 480 36,000  Level Indianapolis Center
Sun 06:36:52 PM 37.9211 -84.3589 346° North 401 461 36,000  Level Indianapolis Center
Sun 06:37:54 PM 38.0183 -84.4125 337° Northwest 382 440 36,000  Level Indianapolis Center
Sun 06:38:56 PM 38.1097 -84.4753 332° Northwest 374 430 36,000  Level Indianapolis Center
Sun 06:39:59 PM 38.1989 -84.5483 327° Northwest 379 436 36,000  Level Indianapolis Center
Sun 06:41:01 PM 38.2997 -84.6342 326° Northwest 375 432 36,000  Level Indianapolis Center
Sun 06:42:03 PM 38.3881 -84.7058 328° Northwest 375 432 36,000  Level Indianapolis Center
Sun 06:43:05 PM 38.4750 -84.7794 326° Northwest 374 430 36,000  Level Indianapolis Center
Sun 06:44:07 PM 38.5631 -84.8506 328° Northwest 372 428 36,000  Level Indianapolis Center
Sun 06:45:09 PM 38.6536 -84.9264 327° Northwest 372 428 36,000 -290 Level Indianapolis Center
Sun 06:46:11 PM 38.7425 -85.0011 327° Northwest 378 435 35,400 -774 Descending Indianapolis Center
Sun 06:47:13 PM 38.8331 -85.0750 328° Northwest 382 440 34,400 -919 Descending Indianapolis Center
Sun 06:48:15 PM 38.9228 -85.1517 326° Northwest 383 441 33,500 -1,016 Descending Indianapolis Center
Sun 06:49:17 PM 39.0283 -85.2400 327° Northwest 385 443 32,300 -1,016 Descending Indianapolis Center
Sun 06:50:19 PM 39.1342 -85.2919 339° North 406 467 31,400 -968 Descending Indianapolis Center
Sun 06:51:21 PM 39.2553 -85.3239 348° North 437 503 30,300 -1,113 Descending Indianapolis Center
Sun 06:52:23 PM 39.3742 -85.3572 348° North 435 501 29,100 -1,171 Descending Indianapolis Center
Sun 06:53:24 PM 39.4892 -85.3906 347° North 425 489 27,900 -1,171 Descending Indianapolis Center
Sun 06:54:26 PM 39.6033 -85.4236 347° North 421 484 26,700 -919 Descending Indianapolis Center
Sun 06:55:28 PM 39.7142 -85.4544 348° North 411 473 26,000 -339 Descending Indianapolis Center
Sun 06:56:30 PM 39.8469 -85.4919 348° North 414 476 26,000  Level Indianapolis Center
Sun 06:57:32 PM 39.9633 -85.5253 348° North 424 488 26,000  Level Indianapolis Center
Sun 06:58:34 PM 40.0794 -85.5581 348° North 425 489 26,000  Level Indianapolis Center
Sun 06:59:21 PM 40.1764 -85.5861 348° North 425 489 26,000  Level Chicago Center
Sun 07:00:22 PM 40.2925 -85.6178 348° North 424 488 26,000  Level Chicago Center
Sun 07:01:24 PM 40.4097 -85.6531 347° North 428 493 26,000 -339 Level Chicago Center
Sun 07:02:26 PM 40.5269 -85.6897 347° North 431 496 25,300 -823 Descending Chicago Center
Sun 07:03:28 PM 40.6367 -85.7367 342° North 416 479 24,300 -629 Descending Chicago Center
Sun 07:04:30 PM 40.7092 -85.8400 313° West 391 450 24,000 -435 Descending Chicago Center
Sun 07:05:32 PM 40.7681 -85.9589 303° West 386 444 23,400 -774 Descending Chicago Center
Sun 07:06:34 PM 40.8278 -86.0808 303° West 393 452 22,400 -677 Descending Chicago Center
Sun 07:07:36 PM 40.8989 -86.2253 303° West 391 450 22,000 -194 Descending Chicago Center
Sun 07:08:38 PM 40.9572 -86.3450 303° West 389 448 22,000  Level Chicago Center
Sun 07:09:40 PM 41.0161 -86.4669 303° West 392 451 22,000 -341 Level Chicago Center
Sun 07:10:41 PM 41.0744 -86.5872 303° West 389 448 21,300 -1,220 Descending Chicago Center
Sun 07:11:43 PM 41.1314 -86.7069 302° West 383 441 19,500 -1,790 Descending Chicago Center
Sun 07:12:45 PM 41.1942 -86.8333 303° West 377 434 17,600 -1,694 Descending Chicago Center
Sun 07:13:47 PM 41.2456 -86.9444 302° West 358 412 16,000 -1,548 Descending Chicago Center
Sun 07:14:49 PM 41.2961 -87.0514 302° West 346 398 14,400 -1,403 Descending Chicago Center
Sun 07:15:51 PM 41.3472 -87.1586 302° West 346 398 13,100 -1,513 Descending Chicago Center
Sun 07:16:48 PM 41.4167 -87.2500 315° West 334 384 11,400 -1,135 Descending Chicago TRACON
Sun 07:17:42 PM 41.4833 -87.3333 317° Northwest 336 387 11,000 -316 Descending Chicago TRACON
Sun 07:18:42 PM 41.5500 -87.4167 317° Northwest 332 382 10,800 -240 Descending Chicago TRACON
Sun 07:18:57 PM 41.5625 -87.4275 327° Northwest 333 383 10,700 -623 Descending Chicago Center
Sun 07:19:59 PM 41.6331 -87.5025 322° Northwest 329 379 10,000 -435 Descending Chicago Center
Sun 07:21:01 PM 41.6950 -87.5728 320° Northwest 290 334 9,800 -871 Descending Chicago Center
Sun 07:22:03 PM 41.7600 -87.6458 320° Northwest 261 300 8,200 -1,483 Descending Chicago Center
Sun 07:22:30 PM 41.7833 -87.6833 310° West 254 292 7,600 -818 Descending Chicago TRACON
Sun 07:23:31 PM 41.8333 -87.7333 323° Northwest 251 289 7,000 -298 Descending Chicago TRACON
Sun 07:24:31 PM 41.8500 -87.8167 285° West 219 252 7,000 -250 Level Chicago TRACON
Sun 07:25:31 PM 41.8333 -87.8833 251° West 174 200 6,500 -660 Descending Chicago TRACON
Sun 07:26:11 PM 41.8161 -87.9242 241° Southwest 178 205 5,900 -941 Descending Chicago Center
Sun 07:27:13 PM 41.7858 -87.9706 229° Southwest 170 196 4,900 -919 Descending Chicago Center
Sun 07:28:15 PM 41.7925 -88.0211 280° West 175 201 4,000 -532 Descending Chicago Center
Sun 07:29:17 PM 41.8367 -88.0311 350° North 181 208 3,800 -629 Descending Chicago Center
Sun 07:30:19 PM 41.8783 -87.9906 36° Northeast 183 211 2,700 -968 Descending Chicago Center
Sun 07:31:21 PM 41.9147 -87.9458 42° Northeast 183 211 1,800 -677 Descending Chicago Center
Sun 07:32:23 PM 41.9461 -87.9092 41° Northeast 166 191 1,300 -484 Descending Chicago Center

Login

Don't have an account? Register now (free) for customized features, flight alerts, and more!